METAR Data
IDs: Format: Raw Decoded Include TAF

Data at: 1804 UTC 09 Dec 2019

KCXW 091755Z AUTO 23014KT 10SM CLR 20/14 A2969 RMK A01
KCXW 091735Z AUTO 23012KT 10SM CLR 20/14 A2970 RMK A01
KCXW 091715Z AUTO 22013G19KT 10SM CLR 19/15 A2970 RMK A01
KCXW 091655Z AUTO 23009KT 10SM CLR 19/14 A2970 RMK A01
KCXW 091635Z AUTO 23014G19KT 10SM CLR 19/15 A2970 RMK A01
KCXW 091615Z AUTO 22014KT 10SM CLR 18/14 A2970 RMK A01
KCXW 091555Z AUTO 22012KT 10SM CLR 18/14 A2970 RMK A01
KCXW 091535Z AUTO 22011G17KT 10SM CLR 18/14 A2969 RMK A01
KCXW 091515Z AUTO 21013KT 10SM CLR 17/14 A2969 RMK A01
KCXW 091450Z AUTO 20011KT 10SM FEW020 16/14 A2969 RMK A01
KCXW 091435Z AUTO 20009G15KT 10SM SCT021 16/14 A2969 RMK A01
KCXW 091415Z AUTO 21010KT 10SM OVC020 16/14 A2969 RMK A01
KCXW 091355Z AUTO 22008G14KT 10SM OVC019 16/14 A2969 RMK A01
KCXW 091335Z AUTO 21010G16KT 9SM BKN015 OVC020 16/14 A2968 RMK A01
KCXW 091315Z AUTO 21010KT 10SM OVC012 15/14 A2968 RMK A01
KCXW 091255Z AUTO 21012KT 9SM OVC011 15/14 A2967 RMK A01
KCXW 091235Z AUTO 21015KT 8SM OVC010 15/13 A2966 RMK A01
KCXW 091215Z AUTO 20013G19KT 8SM OVC009 15/13 A2967 RMK A01
KCXW 091155Z AUTO 19011KT 7SM OVC009 14/13 A2967 RMK A01
KCXW 091135Z AUTO 19010KT 7SM OVC009 14/13 A2968 RMK A01
KCXW 091115Z AUTO 18008G14KT 7SM OVC009 14/13 A2969 RMK A01
KCXW 091055Z AUTO 20008KT 7SM OVC008 14/13 A2969 RMK A01
KCXW 091035Z AUTO 19008KT 6SM BR OVC008 13/13 A2970 RMK A01
KCXW 091015Z AUTO 19007KT 6SM BR OVC007 13/12 A2971 RMK A01
KCXW 090955Z AUTO 19009KT 6SM BR OVC007 13/12 A2971 RMK A01
KCXW 090935Z AUTO 18007KT 6SM BR OVC007 13/12 A2971 RMK A01
KCXW 090915Z AUTO 18009KT 7SM OVC008 13/12 A2972 RMK A01
KCXW 090855Z AUTO 18010KT 7SM OVC008 12/11 A2973 RMK A01
KCXW 090835Z AUTO 17007KT 7SM OVC008 12/11 A2974 RMK A01
KCXW 090815Z AUTO 17007KT 8SM OVC008 12/11 A2974 RMK A01
KCXW 090755Z AUTO 16008KT 9SM OVC009 12/11 A2975 RMK A01
KCXW 090735Z AUTO 15010KT 10SM OVC009 12/11 A2976 RMK A01
KCXW 090715Z AUTO 16010KT 10SM OVC010 12/10 A2976 RMK A01
KCXW 090655Z AUTO 17010KT 10SM OVC010 12/10 A2977 RMK A01
KCXW 090635Z AUTO 17009KT 10SM OVC011 12/10 A2978 RMK A01
KCXW 090615Z AUTO 17008KT 10SM OVC011 11/10 A2978 RMK A01
KCXW 090555Z AUTO 17009KT 10SM OVC011 11/10 A2980 RMK A01
KCXW 090535Z AUTO 17009KT 10SM OVC011 11/10 A2981 RMK A01
KCXW 090515Z AUTO 17009KT 10SM OVC011 11/10 A2982 RMK A01
KCXW 090455Z AUTO 18007KT 10SM OVC011 11/09 A2983 RMK A01
KCXW 090435Z AUTO 20007KT 10SM OVC011 11/09 A2984 RMK A01
KCXW 090415Z AUTO 19007KT 10SM OVC012 11/09 A2983 RMK A01
KCXW 090355Z AUTO 18011KT 10SM OVC012 11/09 A2984 RMK A01
KCXW 090335Z AUTO 18010G16KT 10SM OVC013 10/09 A2983 RMK A01
KCXW 090315Z AUTO 17011KT 10SM OVC012 10/09 A2985 RMK A01
KCXW 090255Z AUTO 18011KT 10SM OVC012 10/08 A2985 RMK A01
KCXW 090235Z AUTO 19010KT 10SM OVC012 10/08 A2986 RMK A01
KCXW 090215Z AUTO 19010KT 10SM OVC015 10/08 A2987 RMK A01
KCXW 090155Z AUTO 17009KT 10SM BKN016 BKN026 OVC039 10/08 A2986 RMK A01
KCXW 090135Z AUTO 18008KT 10SM BKN015 OVC024 10/08 A2988 RMK A01
KCXW 090115Z AUTO 17006KT 10SM OVC013 10/08 A2988 RMK A01
KCXW 090055Z AUTO 15007KT 10SM OVC013 10/08 A2988 RMK A01
KCXW 090035Z AUTO 16008KT 10SM OVC013 10/08 A2988 RMK A01
KCXW 090015Z AUTO 16009KT 10SM OVC014 10/08 A2988 RMK A01
KCXW 082355Z AUTO 15009KT 10SM OVC015 10/08 A2989 RMK A01
KCXW 082335Z AUTO 15008G15KT 10SM BKN015 BKN023 BKN045 10/07 A2989 RMK A01
KCXW 082315Z AUTO 14011KT 10SM FEW025 10/07 A2988 RMK A01
KCXW 082255Z AUTO 13008KT 10SM CLR 10/07 A2989 RMK A01
KCXW 082235Z AUTO 14009KT 10SM CLR 10/07 A2991 RMK A01
KCXW 082215Z AUTO 15008KT 10SM SCT017 10/07 A2992 RMK A01
KCXW 082155Z AUTO 14006KT 10SM BKN017 10/07 A2992 RMK A01
KCXW 082135Z AUTO 15007KT 10SM OVC017 10/07 A2992 RMK A01
KCXW 082115Z AUTO 15008KT 10SM OVC017 10/07 A2993 RMK A01
KCXW 082055Z AUTO 17008KT 10SM BKN017 11/07 A2994 RMK A01
KCXW 082035Z AUTO 16010KT 10SM BKN017 11/07 A2995 RMK A01
KCXW 082015Z AUTO 17011KT 10SM BKN017 11/07 A2994 RMK A01
KCXW 081955Z AUTO 18012KT 10SM BKN015 10/07 A2994 RMK A01
KCXW 081935Z AUTO 18010KT 10SM BKN015 11/08 A2996 RMK A01
KCXW 081915Z AUTO 18010KT 10SM OVC013 10/08 A2998 RMK A01
KCXW 081855Z AUTO 19009KT 10SM OVC013 10/07 A3000 RMK A01
KCXW 081835Z AUTO 19011KT 10SM OVC011 09/07 A3000 RMK A01
KCXW 081815Z AUTO 18010KT 10SM OVC009 09/07 A3002 RMK A01
KCXW 081755Z AUTO 18009KT 10SM OVC008 09/07 A3003 RMK A01
KCXW 081735Z AUTO 18006KT 10SM OVC008 08/07 A3005 RMK A01
KCXW 081715Z AUTO 16006KT 9SM OVC006 08/07 A3006 RMK A01
KCXW 081655Z AUTO 18007KT 8SM OVC005 07/07 A3008 RMK A01
KCXW 081635Z AUTO 15006KT 4SM BR OVC004 07/07 A3008 RMK A01
KCXW 081615Z AUTO 15006KT 2SM BR OVC004 06/06 A3010 RMK A01
KCXW 081555Z AUTO 15007KT 1SM BR OVC004 06/06 A3010 RMK A01
KCXW 081535Z AUTO 15006KT 1SM BR OVC004 06/06 A3011 RMK A01
KCXW 081510Z AUTO 16005KT 3/4SM BR OVC003 06/06 A3012 RMK A01
KCXW 081455Z AUTO 15006KT 3/4SM BR OVC003 05/05 A3012 RMK A01
KCXW 081435Z AUTO 15007KT 1/2SM FG OVC003 05/05 A3011 RMK A01
KCXW 081415Z AUTO 15006KT 2SM BR OVC003 05/05 A3011 RMK A01
KCXW 081355Z AUTO 15007KT 1/2SM FG OVC003 05/05 A3013 RMK A01
KCXW 081335Z AUTO 17005KT 1/4SM FG OVC003 05/05 A3014 RMK A01
KCXW 081315Z AUTO 15007KT 1 1/4SM BR OVC003 05/05 A3012 RMK A01
KCXW 081255Z AUTO 16006KT 1SM BR OVC003 05/05 A3013 RMK A01
KCXW 081235Z AUTO 16007KT 1SM BR OVC003 05/05 A3013 RMK A01
KCXW 081215Z AUTO 16006KT 1 1/4SM BR OVC003 05/05 A3012 RMK A01
KCXW 081155Z AUTO 16008KT 1 1/2SM BR OVC003 05/05 A3013 RMK A01
KCXW 081135Z AUTO 16007KT 1 3/4SM BR OVC003 05/05 A3013 RMK A01
KCXW 081115Z AUTO 16007KT 1 1/4SM BR OVC003 05/05 A3013 RMK A01
KCXW 081055Z AUTO 15008KT 3/4SM BR OVC003 05/05 A3013 RMK A01
KCXW 081035Z AUTO 14007KT 3/4SM BR OVC003 05/05 A3013 RMK A01
KCXW 081015Z AUTO 16005KT 3/4SM BR OVC003 05/05 A3014 RMK A01
KCXW 080955Z AUTO 16005KT 1 1/4SM BR OVC003 05/05 A3014 RMK A01
KCXW 080935Z AUTO 15006KT 1/2SM FG OVC003 05/05 A3014 RMK A01
KCXW 080915Z AUTO 14005KT 1/2SM FG OVC003 05/05 A3015 RMK A01
KCXW 080855Z AUTO 13004KT 1/2SM FG OVC003 05/05 A3016 RMK A01
KCXW 080835Z AUTO 14005KT 1/2SM FG OVC003 05/05 A3017 RMK A01
KCXW 080815Z AUTO 16003KT 1SM BR OVC003 05/05 A3018 RMK A01
KCXW 080755Z AUTO 17006KT 1SM BR OVC003 05/05 A3018 RMK A01
KCXW 080735Z AUTO 15005KT 1 1/4SM BR OVC003 05/05 A3018 RMK A01
KCXW 080715Z AUTO 16007KT 1 1/4SM BR OVC003 05/05 A3019 RMK A01
KCXW 080655Z AUTO 14006KT 1SM BR OVC003 05/05 A3018 RMK A01
KCXW 080635Z AUTO 13006KT 3/4SM BR OVC003 04/04 A3018 RMK A01
KCXW 080615Z AUTO 12005G10KT 1SM BR OVC003 04/04 A3019 RMK A01